Terminal Aerodrome Forecast
Issued by NWS

Home | Current Version | Previous Version | Text Only | Print | Product List | Glossary On
Versions: 1 2 3 4 5 6 7 8 9 10 11 12 13 14
000
FTUS44 KLZK 211100
TAFADF
TAF
KADF 211120Z 2112/2212 20004KT P6SM VCSH SCT040 BKN070
     FM211800 22009KT P6SM -TSRA BKN040CB OVC100
     FM220000 VRB04KT P6SM VCSH BKN040 OVC100
     FM220600 VRB03KT 5SM BR BKN025 OVC040
      TEMPO 2209/2212 2SM BR BKN008 OVC025=

USA.gov is the U.S. government's official web portal to all federal, state and local government web resources and services.